Nord Tokyo — 9V8171 — position and weather

sailwx.info

Track history (hours):
 
Tides and Currents Weather Stations Pressure Air Temp Water Temp Dewpoint Dewpoint Depression Visibility Wind Speed Wind Dir Waves Ship Positions

Nord Tokyo

Last reported at 2017-Dec-09 09:16 UTC. Time now 2017-Dec-16 18:53 UTC.
Position N 21°53' E 120°11'.

Length 169 m; draft 5.6 m.

Type: Cargo ship. MMSI: 564896000.

Date/timePositionNaut miles runAvg speedWind from/ knotsBaromVisibWave heightAir tempDewpointWater temp
2017-Dec-09 09:16N 21°53' E 120°11'412.8
2017-Dec-09 08:57N 21°57' E 120°11'1413.2
2017-Dec-09 07:56N 22°10' E 120°08'612.8
2017-Dec-09 07:27N 22°16' E 120°08'613.2
2017-Dec-09 07:00N 22°22' E 120°08'712.9
2017-Dec-09 06:30N 22°28' E 120°09'612.7
2017-Dec-09 06:00N 22°35' E 120°10'510.9
2017-Dec-09 05:30N 22°37' E 120°15'3 6.4
2017-Dec-09 05:00N 22°36' E 120°18'0 0.2
2017-Dec-09 04:28N 22°36' E 120°18'0 0.0
2017-Dec-09 03:58N 22°36' E 120°18'0 0.0
2017-Dec-09 03:28N 22°36' E 120°18'0 0.0
2017-Dec-09 02:58N 22°36' E 120°18'0 0.0
2017-Dec-09 02:28N 22°36' E 120°18'0 0.0
2017-Dec-09 01:58N 22°36' E 120°18'0 0.0
2017-Dec-09 01:28N 22°36' E 120°18'0 0.0
2017-Dec-09 00:58N 22°36' E 120°18'0 0.0
2017-Dec-09 00:28N 22°36' E 120°18'0 0.0
2017-Dec-08 23:58N 22°36' E 120°18'0 0.0
2017-Dec-08 23:28N 22°36' E 120°18'0 0.0
2017-Dec-08 22:58N 22°36' E 120°18'0 0.0
2017-Dec-08 22:28N 22°36' E 120°18'0 0.0
2017-Dec-08 21:58N 22°36' E 120°18'0 0.0
2017-Dec-08 21:28N 22°36' E 120°18'0 0.0
2017-Dec-08 20:58N 22°36' E 120°18'0 0.0
2017-Dec-08 20:28N 22°36' E 120°18'0 0.0
2017-Dec-08 19:55N 22°36' E 120°18'0 0.0
2017-Dec-08 19:28N 22°36' E 120°18'0 0.0
2017-Dec-08 18:58N 22°36' E 120°18'0 0.0
2017-Dec-08 18:28N 22°36' E 120°18'0 0.0
2017-Dec-08 17:55N 22°36' E 120°18'0 0.0
2017-Dec-08 17:28N 22°36' E 120°18'0 0.0
2017-Dec-08 16:55N 22°36' E 120°18'0 0.0
2017-Dec-08 16:28N 22°36' E 120°18'0 0.0
2017-Dec-08 15:58N 22°36' E 120°18'0 0.0
2017-Dec-08 15:25N 22°36' E 120°18'0 0.0
2017-Dec-08 14:55N 22°36' E 120°18'0 0.0
2017-Dec-08 14:25N 22°36' E 120°18'0 0.0
2017-Dec-08 13:58N 22°36' E 120°18'0 0.0
2017-Dec-08 13:25N 22°36' E 120°18'0 0.0
2017-Dec-08 12:58N 22°36' E 120°18'0 0.0
2017-Dec-08 12:28N 22°36' E 120°18'0 0.0
2017-Dec-08 11:58N 22°36' E 120°18'0 0.0
2017-Dec-08 11:28N 22°36' E 120°18'0 0.0
2017-Dec-08 10:58N 22°36' E 120°18'0 0.0
2017-Dec-08 10:28N 22°36' E 120°18'0 0.0
2017-Dec-08 09:55N 22°36' E 120°18'0 0.0
2017-Dec-08 09:28N 22°36' E 120°18'0 0.0
2017-Dec-08 08:58N 22°36' E 120°18'0 0.0
2017-Dec-08 08:28N 22°36' E 120°18'0 0.0
2017-Dec-08 07:55N 22°36' E 120°18'0 0.0
2017-Dec-08 07:28N 22°36' E 120°18'0 0.0
2017-Dec-08 06:58N 22°36' E 120°18'0 0.0
2017-Dec-08 06:28N 22°36' E 120°18'0 0.0
2017-Dec-08 05:58N 22°36' E 120°18'0 0.0
2017-Dec-08 05:28N 22°36' E 120°18'0 0.0
2017-Dec-08 04:58N 22°36' E 120°18'0 0.0
2017-Dec-08 04:28N 22°36' E 120°18'0 0.0
2017-Dec-08 04:00N 22°36' E 120°18'1 1.6
2017-Dec-08 03:30N 22°37' E 120°17'4 7.3
2017-Dec-08 03:00N 22°37' E 120°13'3 5.6
2017-Dec-08 02:30N 22°36' E 120°10'3 6.8
2017-Dec-08 02:01N 22°33' E 120°09'4 7.0
2017-Dec-08 01:30N 22°30' E 120°09'612.1
2017-Dec-08 01:00N 22°24' E 120°10'712.9
2017-Dec-08 00:29N 22°17' E 120°11'713.2
2017-Dec-07 23:56N 22°12' E 120°17'48 8.8
2017-Dec-07 18:28N 22°04' E 121°08'611.5
2017-Dec-07 17:58N 22°08' E 121°12'511.5
2017-Dec-07 17:29N 22°13' E 121°16'611.4
2017-Dec-07 16:59N 22°17' E 121°20'811.4
2017-Dec-07 16:15N 22°23' E 121°25'311.1
2017-Dec-07 15:58N 22°26' E 121°28'1211.1
2017-Dec-07 14:55N 22°34' E 121°37'9212.0
2017-Dec-07 07:14N 23°44' E 122°42'312.9
2017-Dec-07 06:58N 23°47' E 122°44'612.6
2017-Dec-07 06:30N 23°51' E 122°48'712.3
2017-Dec-07 05:58N 23°56' E 122°52'612.2
2017-Dec-07 05:30N 24°00' E 122°57'612.6
2017-Dec-07 05:00N 24°05' E 123°02'612.3
2017-Dec-07 04:30N 24°09' E 123°06'713.0
2017-Dec-07 04:00N 24°14' E 123°11'713.3
2017-Dec-07 03:30N 24°19' E 123°16'612.6
2017-Dec-07 03:00N 24°24' E 123°20'612.5
2017-Dec-07 02:30N 24°28' E 123°25'612.8
2017-Dec-07 02:00N 24°33' E 123°30'713.1
2017-Dec-07 01:30N 24°38' E 123°35'  
2017-Dec-04 00:36N 33°51' E 134°54'113.4
2017-Dec-04 00:30N 33°52' E 134°55'713.2
2017-Dec-04 00:00N 33°58' E 134°58'612.8
2017-Dec-03 23:30N 34°04' E 135°01'612.3
2017-Dec-03 23:00N 34°10' E 135°03'510.2
2017-Dec-03 22:30N 34°14' E 135°05'1 2.8
2017-Dec-03 21:58N 34°14' E 135°07'0 0.0
2017-Dec-03 21:28N 34°14' E 135°07'0 0.0
2017-Dec-03 20:58N 34°14' E 135°07'0 0.0
2017-Dec-03 20:28N 34°14' E 135°07'0 0.0
2017-Dec-03 19:58N 34°14' E 135°07'0 0.0
2017-Dec-03 19:28N 34°14' E 135°07'0 0.0
2017-Dec-03 18:58N 34°14' E 135°07'0 0.0
2017-Dec-03 18:28N 34°14' E 135°07'0 0.0
2017-Dec-03 17:58N 34°14' E 135°07'0 0.0
2017-Dec-03 17:28N 34°14' E 135°07'0 0.0
2017-Dec-03 16:58N 34°14' E 135°07'0 0.1
2017-Dec-03 16:28N 34°14' E 135°07'0 0.1
2017-Dec-03 15:58N 34°14' E 135°07'0 0.0
2017-Dec-03 15:28N 34°14' E 135°07'0 0.0
2017-Dec-03 14:58N 34°14' E 135°07'0 0.0
2017-Dec-03 14:28N 34°14' E 135°07'0 0.0
2017-Dec-03 13:58N 34°14' E 135°07'0 0.0
2017-Dec-03 13:25N 34°14' E 135°07'0 0.0
2017-Dec-03 12:58N 34°14' E 135°07'0 0.0
2017-Dec-03 12:28N 34°14' E 135°07'0 0.0
2017-Dec-03 11:58N 34°14' E 135°07'0 0.0
2017-Dec-03 11:28N 34°14' E 135°07'0 0.0
2017-Dec-03 10:58N 34°14' E 135°07'0 0.0
2017-Dec-03 10:28N 34°14' E 135°07'0 0.0
2017-Dec-03 09:58N 34°14' E 135°07'0 0.0
2017-Dec-03 09:28N 34°14' E 135°07'0 0.0
2017-Dec-03 08:58N 34°14' E 135°07'0 0.0
2017-Dec-03 08:28N 34°14' E 135°07'0 0.0
2017-Dec-03 07:58N 34°14' E 135°07'0 0.0
2017-Dec-03 07:28N 34°14' E 135°07'0 0.0
2017-Dec-03 06:58N 34°14' E 135°07'0 0.0
2017-Dec-03 06:28N 34°14' E 135°07'0 0.0
2017-Dec-03 05:58N 34°14' E 135°07'0 0.0
2017-Dec-03 05:28N 34°14' E 135°07'0 0.0
2017-Dec-03 04:58N 34°14' E 135°07'0 0.0
2017-Dec-03 04:28N 34°14' E 135°07'0 0.0
2017-Dec-03 03:58N 34°14' E 135°07'0 0.0
2017-Dec-03 03:28N 34°14' E 135°07'0 0.0
2017-Dec-03 02:58N 34°14' E 135°07'0 0.0
2017-Dec-03 02:28N 34°14' E 135°07'0 0.0
2017-Dec-03 01:58N 34°14' E 135°07'0 0.0
2017-Dec-03 01:28N 34°14' E 135°07'0 0.0
2017-Dec-03 00:58N 34°14' E 135°07'0 0.0
2017-Dec-03 00:28N 34°14' E 135°07'0 0.0
2017-Dec-02 23:58N 34°14' E 135°07'0 0.0
2017-Dec-02 23:28N 34°14' E 135°07'0 0.0
2017-Dec-02 22:58N 34°14' E 135°07'0 0.0
2017-Dec-02 22:28N 34°14' E 135°07'0 0.0
2017-Dec-02 21:58N 34°14' E 135°07'0 0.0
2017-Dec-02 21:28N 34°14' E 135°07'0 0.0
2017-Dec-02 20:58N 34°14' E 135°07'0 0.0
2017-Dec-02 20:28N 34°14' E 135°07'0 0.0
2017-Dec-02 19:58N 34°14' E 135°07'0 0.0
2017-Dec-02 19:28N 34°14' E 135°07'0 0.0
2017-Dec-02 18:58N 34°14' E 135°07'0 0.0
2017-Dec-02 18:28N 34°14' E 135°07'0 0.0
2017-Dec-02 17:58N 34°14' E 135°07'0 0.0
2017-Dec-02 17:28N 34°14' E 135°07'0 0.0
2017-Dec-02 16:58N 34°14' E 135°07'0 0.0
2017-Dec-02 16:28N 34°14' E 135°07'0 0.0
2017-Dec-02 15:58N 34°14' E 135°07'0 0.0
2017-Dec-02 15:28N 34°14' E 135°07'0 0.0
2017-Dec-02 14:58N 34°14' E 135°07'0 0.0
2017-Dec-02 14:28N 34°14' E 135°07'0 0.0
2017-Dec-02 13:58N 34°14' E 135°07'0 0.0
2017-Dec-02 13:28N 34°14' E 135°07'0 0.0
2017-Dec-02 12:58N 34°14' E 135°07'0 0.0
2017-Dec-02 12:28N 34°14' E 135°07'0 0.0
2017-Dec-02 11:58N 34°14' E 135°07'0 0.0
2017-Dec-02 11:28N 34°14' E 135°07'0 0.0
2017-Dec-02 10:58N 34°14' E 135°07'0 0.0
2017-Dec-02 10:28N 34°14' E 135°07'0 0.0
2017-Dec-02 09:58N 34°14' E 135°07'0 0.0
2017-Dec-02 09:28N 34°14' E 135°07'0 0.0
2017-Dec-02 08:58N 34°14' E 135°07'0 0.0
2017-Dec-02 08:28N 34°14' E 135°07'0 0.0
2017-Dec-02 07:58N 34°14' E 135°07'0 0.0
2017-Dec-02 07:28N 34°14' E 135°07'0 0.0
2017-Dec-02 06:58N 34°14' E 135°07'0 0.0
2017-Dec-02 06:28N 34°14' E 135°07'0 0.0
2017-Dec-02 05:58N 34°14' E 135°07'0 0.0
2017-Dec-02 05:28N 34°14' E 135°07'0 0.0
2017-Dec-02 04:58N 34°14' E 135°07'0 0.0
2017-Dec-02 04:28N 34°14' E 135°07'0 0.0
2017-Dec-02 03:58N 34°14' E 135°07'0 0.0
2017-Dec-02 03:28N 34°14' E 135°07'0 0.0
2017-Dec-02 02:58N 34°14' E 135°07'0 0.0
2017-Dec-02 02:28N 34°14' E 135°07'0 0.0
2017-Dec-02 01:55N 34°14' E 135°07'0 0.0
2017-Dec-02 01:28N 34°14' E 135°07'0 0.0
2017-Dec-02 00:58N 34°14' E 135°07'0 0.0
2017-Dec-02 00:28N 34°14' E 135°07'0 0.0
2017-Dec-01 23:58N 34°14' E 135°07'0 0.0
2017-Dec-01 23:28N 34°14' E 135°07'0 0.0
2017-Dec-01 22:58N 34°14' E 135°07'0 0.0
2017-Dec-01 22:28N 34°14' E 135°07'0 0.0
2017-Dec-01 21:58N 34°14' E 135°07'0 0.0
2017-Dec-01 21:28N 34°14' E 135°07'0 0.0
2017-Dec-01 20:58N 34°14' E 135°07'0 0.0
2017-Dec-01 20:28N 34°14' E 135°07'0 0.0
2017-Dec-01 19:58N 34°14' E 135°07'0 0.0
2017-Dec-01 19:28N 34°14' E 135°07'0 0.0
2017-Dec-01 18:58N 34°14' E 135°07'0 0.0
2017-Dec-01 18:28N 34°14' E 135°07'0 0.0
2017-Dec-01 17:58N 34°14' E 135°07'0 0.0
2017-Dec-01 17:28N 34°14' E 135°07'0 0.0
2017-Dec-01 16:58N 34°14' E 135°07'0 0.0
2017-Dec-01 16:28N 34°14' E 135°07'0 0.0
2017-Dec-01 15:58N 34°14' E 135°07'0 0.0
2017-Dec-01 15:28N 34°14' E 135°07'0 0.0
2017-Dec-01 14:58N 34°14' E 135°07'0 0.0
2017-Dec-01 14:28N 34°14' E 135°07'0 0.0
2017-Dec-01 13:58N 34°14' E 135°07'0 0.0
2017-Dec-01 13:28N 34°14' E 135°07'0 0.0
2017-Dec-01 12:58N 34°14' E 135°07'0 0.0
2017-Dec-01 12:28N 34°14' E 135°07'0 0.0
2017-Dec-01 11:58N 34°14' E 135°07'0 0.0
2017-Dec-01 11:28N 34°14' E 135°07'0 0.0
2017-Dec-01 10:58N 34°14' E 135°07'0 0.0
2017-Dec-01 10:28N 34°14' E 135°07'0 0.0
2017-Dec-01 09:58N 34°14' E 135°07'0 0.0
2017-Dec-01 09:28N 34°14' E 135°07'0 0.0
2017-Dec-01 08:58N 34°14' E 135°07'0 0.0
2017-Dec-01 08:28N 34°14' E 135°07'0 0.0
2017-Dec-01 07:58N 34°14' E 135°07'0 0.0
2017-Dec-01 07:28N 34°14' E 135°07'0 0.0
2017-Dec-01 06:58N 34°14' E 135°07'0 0.0
2017-Dec-01 06:28N 34°14' E 135°07'0 0.0
2017-Dec-01 05:58N 34°14' E 135°07'0 0.0
2017-Dec-01 05:28N 34°14' E 135°07'0 0.0
2017-Dec-01 04:58N 34°14' E 135°07'0 0.0
2017-Dec-01 04:28N 34°14' E 135°07'0 0.0
2017-Dec-01 03:58N 34°14' E 135°07'0 0.0
2017-Dec-01 03:28N 34°14' E 135°07'0 0.0
2017-Dec-01 02:58N 34°14' E 135°07'0 0.0
2017-Dec-01 02:28N 34°14' E 135°07'0 0.0
2017-Dec-01 01:58N 34°14' E 135°07'0 0.0
2017-Dec-01 01:28N 34°14' E 135°07'0 0.0
2017-Dec-01 00:58N 34°14' E 135°07'0 0.0
2017-Dec-01 00:28N 34°14' E 135°07'0 0.0
2017-Nov-30 23:58N 34°14' E 135°07'0 0.0
2017-Nov-30 23:28N 34°14' E 135°07'0 0.0
2017-Nov-30 22:58N 34°14' E 135°07'0 0.0
2017-Nov-30 22:28N 34°14' E 135°07'0 0.0
2017-Nov-30 21:58N 34°14' E 135°07'0 0.0
2017-Nov-30 21:28N 34°14' E 135°07'0 0.0
2017-Nov-30 20:58N 34°14' E 135°07'0 0.0
2017-Nov-30 20:28N 34°14' E 135°07'0 0.0
2017-Nov-30 19:58N 34°14' E 135°07'0 0.0
2017-Nov-30 19:28N 34°14' E 135°07'0 0.0
2017-Nov-30 18:58N 34°14' E 135°07'0 0.0
2017-Nov-30 18:28N 34°14' E 135°07'0 0.0
2017-Nov-30 17:58N 34°14' E 135°07'0 0.0
2017-Nov-30 17:28N 34°14' E 135°07'0 0.0
2017-Nov-30 16:58N 34°14' E 135°07'0 0.0
2017-Nov-30 16:28N 34°14' E 135°07'0 0.0
2017-Nov-30 15:58N 34°14' E 135°07'0 0.0
2017-Nov-30 15:28N 34°14' E 135°07'0 0.0
2017-Nov-30 14:58N 34°14' E 135°07'0 0.0
2017-Nov-30 14:28N 34°14' E 135°07'0 0.0
2017-Nov-30 13:58N 34°14' E 135°07'0 0.0
2017-Nov-30 13:28N 34°14' E 135°07'0 0.0
2017-Nov-30 12:58N 34°14' E 135°07'0 0.0
2017-Nov-30 12:28N 34°14' E 135°07'0 0.0
2017-Nov-30 11:58N 34°14' E 135°07'0 0.0
2017-Nov-30 11:28N 34°14' E 135°07'0 0.0
2017-Nov-30 10:58N 34°14' E 135°07'0 0.0
2017-Nov-30 10:28N 34°14' E 135°07'0 0.0
2017-Nov-30 09:58N 34°14' E 135°07'0 0.0
2017-Nov-30 09:28N 34°14' E 135°07'0 0.0
2017-Nov-30 08:58N 34°14' E 135°07'0 0.0
2017-Nov-30 08:28N 34°14' E 135°07'0 0.0
2017-Nov-30 07:58N 34°14' E 135°07'0 0.0
2017-Nov-30 07:28N 34°14' E 135°07'0 0.0
2017-Nov-30 06:58N 34°14' E 135°07'0 0.0
2017-Nov-30 06:28N 34°14' E 135°07'0 0.0
2017-Nov-30 05:58N 34°14' E 135°07'0 0.0
2017-Nov-30 05:28N 34°14' E 135°07'0 0.0
2017-Nov-30 04:58N 34°14' E 135°07'0 0.0
2017-Nov-30 04:28N 34°14' E 135°07'0 0.0
2017-Nov-30 03:58N 34°14' E 135°07'0 0.0
2017-Nov-30 03:28N 34°14' E 135°07'0 0.0
2017-Nov-30 02:58N 34°14' E 135°07'0 0.0
2017-Nov-30 02:28N 34°14' E 135°07'0 0.0
2017-Nov-30 01:58N 34°14' E 135°07'0 0.0
2017-Nov-30 01:28N 34°14' E 135°07'0 0.0
2017-Nov-30 00:58N 34°14' E 135°07'0 0.0
2017-Nov-30 00:28N 34°14' E 135°07'0 0.6
2017-Nov-30 00:00N 34°14' E 135°07'2 3.6
2017-Nov-29 23:30N 34°14' E 135°05'0 0.0
2017-Nov-29 22:59N 34°14' E 135°05'0 0.0
2017-Nov-29 22:29N 34°14' E 135°05'0 0.2
2017-Nov-29 21:59N 34°14' E 135°05'0 0.3
2017-Nov-29 21:29N 34°14' E 135°05'0 0.1
2017-Nov-29 20:59N 34°14' E 135°05'0 0.1
2017-Nov-29 20:29N 34°14' E 135°05'0 0.0
2017-Nov-29 19:59N 34°14' E 135°05'0 0.1
2017-Nov-29 19:29N 34°14' E 135°05'0 0.1
2017-Nov-29 18:59N 34°14' E 135°05'0 0.1
2017-Nov-29 18:26N 34°14' E 135°05'0 0.2
2017-Nov-29 17:59N 34°14' E 135°05'0 0.0
2017-Nov-29 17:29N 34°14' E 135°05'0 0.0
2017-Nov-29 16:59N 34°14' E 135°05'0 0.1
2017-Nov-29 16:29N 34°14' E 135°05'0 0.1
2017-Nov-29 15:59N 34°14' E 135°05'0 0.0
2017-Nov-29 15:29N 34°14' E 135°05'0 0.0
2017-Nov-29 14:59N 34°14' E 135°05'0 0.1
2017-Nov-29 14:29N 34°14' E 135°05'0 0.0
2017-Nov-29 13:59N 34°14' E 135°05'0 0.0
2017-Nov-29 13:29N 34°14' E 135°05'0 0.1
2017-Nov-29 12:59N 34°14' E 135°05'0 0.1
2017-Nov-29 12:29N 34°14' E 135°05'0 0.0
2017-Nov-29 11:59N 34°14' E 135°05'0 0.0
2017-Nov-29 11:29N 34°14' E 135°05'0 0.0
2017-Nov-29 10:59N 34°14' E 135°05'0 0.0
2017-Nov-29 10:29N 34°14' E 135°05'0 0.0
2017-Nov-29 09:59N 34°14' E 135°05'0 0.0
2017-Nov-29 09:29N 34°14' E 135°05'  
Track history (hours):
 
Tides and Currents Weather Stations Pressure Air Temp Water Temp Dewpoint Dewpoint Depression Visibility Wind Speed Wind Dir Waves Ship Positions

Nord Tokyo

Last reported at 2017-Dec-09 09:16 UTC. Time now 2017-Dec-16 18:53 UTC.
Position N 21°53' E 120°11'.

Length 169 m; draft 5.6 m.

Type: Cargo ship. MMSI: 564896000.

Date/timePositionNaut miles runAvg speedWind from/ knotsBaromVisibWave heightAir tempDewpointWater temp
2017-Dec-09 09:16N 21°53' E 120°11'412.8
2017-Dec-09 08:57N 21°57' E 120°11'1413.2
2017-Dec-09 07:56N 22°10' E 120°08'612.8
2017-Dec-09 07:27N 22°16' E 120°08'613.2
2017-Dec-09 07:00N 22°22' E 120°08'712.9
2017-Dec-09 06:30N 22°28' E 120°09'612.7
2017-Dec-09 06:00N 22°35' E 120°10'510.9
2017-Dec-09 05:30N 22°37' E 120°15'3 6.4
2017-Dec-09 05:00N 22°36' E 120°18'0 0.2
2017-Dec-09 04:28N 22°36' E 120°18'0 0.0
2017-Dec-09 03:58N 22°36' E 120°18'0 0.0
2017-Dec-09 03:28N 22°36' E 120°18'0 0.0
2017-Dec-09 02:58N 22°36' E 120°18'0 0.0
2017-Dec-09 02:28N 22°36' E 120°18'0 0.0
2017-Dec-09 01:58N 22°36' E 120°18'0 0.0
2017-Dec-09 01:28N 22°36' E 120°18'0 0.0
2017-Dec-09 00:58N 22°36' E 120°18'0 0.0
2017-Dec-09 00:28N 22°36' E 120°18'0 0.0
2017-Dec-08 23:58N 22°36' E 120°18'0 0.0
2017-Dec-08 23:28N 22°36' E 120°18'0 0.0
2017-Dec-08 22:58N 22°36' E 120°18'0 0.0
2017-Dec-08 22:28N 22°36' E 120°18'0 0.0
2017-Dec-08 21:58N 22°36' E 120°18'0 0.0
2017-Dec-08 21:28N 22°36' E 120°18'0 0.0
2017-Dec-08 20:58N 22°36' E 120°18'0 0.0
2017-Dec-08 20:28N 22°36' E 120°18'0 0.0
2017-Dec-08 19:55N 22°36' E 120°18'0 0.0
2017-Dec-08 19:28N 22°36' E 120°18'0 0.0
2017-Dec-08 18:58N 22°36' E 120°18'0 0.0
2017-Dec-08 18:28N 22°36' E 120°18'0 0.0
2017-Dec-08 17:55N 22°36' E 120°18'0 0.0
2017-Dec-08 17:28N 22°36' E 120°18'0 0.0
2017-Dec-08 16:55N 22°36' E 120°18'0 0.0
2017-Dec-08 16:28N 22°36' E 120°18'0 0.0
2017-Dec-08 15:58N 22°36' E 120°18'0 0.0
2017-Dec-08 15:25N 22°36' E 120°18'0 0.0
2017-Dec-08 14:55N 22°36' E 120°18'0 0.0
2017-Dec-08 14:25N 22°36' E 120°18'0 0.0
2017-Dec-08 13:58N 22°36' E 120°18'0 0.0
2017-Dec-08 13:25N 22°36' E 120°18'0 0.0
2017-Dec-08 12:58N 22°36' E 120°18'0 0.0
2017-Dec-08 12:28N 22°36' E 120°18'0 0.0
2017-Dec-08 11:58N 22°36' E 120°18'0 0.0
2017-Dec-08 11:28N 22°36' E 120°18'0 0.0
2017-Dec-08 10:58N 22°36' E 120°18'0 0.0
2017-Dec-08 10:28N 22°36' E 120°18'0 0.0
2017-Dec-08 09:55N 22°36' E 120°18'0 0.0
2017-Dec-08 09:28N 22°36' E 120°18'0 0.0
2017-Dec-08 08:58N 22°36' E 120°18'0 0.0
2017-Dec-08 08:28N 22°36' E 120°18'0 0.0
2017-Dec-08 07:55N 22°36' E 120°18'0 0.0
2017-Dec-08 07:28N 22°36' E 120°18'0 0.0
2017-Dec-08 06:58N 22°36' E 120°18'0 0.0
2017-Dec-08 06:28N 22°36' E 120°18'0 0.0
2017-Dec-08 05:58N 22°36' E 120°18'0 0.0
2017-Dec-08 05:28N 22°36' E 120°18'0 0.0
2017-Dec-08 04:58N 22°36' E 120°18'0 0.0
2017-Dec-08 04:28N 22°36' E 120°18'0 0.0
2017-Dec-08 04:00N 22°36' E 120°18'1 1.6
2017-Dec-08 03:30N 22°37' E 120°17'4 7.3
2017-Dec-08 03:00N 22°37' E 120°13'3 5.6
2017-Dec-08 02:30N 22°36' E 120°10'3 6.8
2017-Dec-08 02:01N 22°33' E 120°09'4 7.0
2017-Dec-08 01:30N 22°30' E 120°09'612.1
2017-Dec-08 01:00N 22°24' E 120°10'712.9
2017-Dec-08 00:29N 22°17' E 120°11'713.2
2017-Dec-07 23:56N 22°12' E 120°17'48 8.8
2017-Dec-07 18:28N 22°04' E 121°08'611.5
2017-Dec-07 17:58N 22°08' E 121°12'511.5
2017-Dec-07 17:29N 22°13' E 121°16'611.4
2017-Dec-07 16:59N 22°17' E 121°20'811.4
2017-Dec-07 16:15N 22°23' E 121°25'311.1
2017-Dec-07 15:58N 22°26' E 121°28'1211.1
2017-Dec-07 14:55N 22°34' E 121°37'9212.0
2017-Dec-07 07:14N 23°44' E 122°42'312.9
2017-Dec-07 06:58N 23°47' E 122°44'612.6
2017-Dec-07 06:30N 23°51' E 122°48'712.3
2017-Dec-07 05:58N 23°56' E 122°52'612.2
2017-Dec-07 05:30N 24°00' E 122°57'612.6
2017-Dec-07 05:00N 24°05' E 123°02'612.3
2017-Dec-07 04:30N 24°09' E 123°06'713.0
2017-Dec-07 04:00N 24°14' E 123°11'713.3
2017-Dec-07 03:30N 24°19' E 123°16'612.6
2017-Dec-07 03:00N 24°24' E 123°20'612.5
2017-Dec-07 02:30N 24°28' E 123°25'612.8
2017-Dec-07 02:00N 24°33' E 123°30'713.1
2017-Dec-07 01:30N 24°38' E 123°35'  
2017-Dec-04 00:36N 33°51' E 134°54'113.4
2017-Dec-04 00:30N 33°52' E 134°55'713.2
2017-Dec-04 00:00N 33°58' E 134°58'612.8
2017-Dec-03 23:30N 34°04' E 135°01'612.3
2017-Dec-03 23:00N 34°10' E 135°03'510.2
2017-Dec-03 22:30N 34°14' E 135°05'1 2.8
2017-Dec-03 21:58N 34°14' E 135°07'0 0.0
2017-Dec-03 21:28N 34°14' E 135°07'0 0.0
2017-Dec-03 20:58N 34°14' E 135°07'0 0.0
2017-Dec-03 20:28N 34°14' E 135°07'0 0.0
2017-Dec-03 19:58N 34°14' E 135°07'0 0.0
2017-Dec-03 19:28N 34°14' E 135°07'0 0.0
2017-Dec-03 18:58N 34°14' E 135°07'0 0.0
2017-Dec-03 18:28N 34°14' E 135°07'0 0.0
2017-Dec-03 17:58N 34°14' E 135°07'0 0.0
2017-Dec-03 17:28N 34°14' E 135°07'0 0.0
2017-Dec-03 16:58N 34°14' E 135°07'0 0.1
2017-Dec-03 16:28N 34°14' E 135°07'0 0.1
2017-Dec-03 15:58N 34°14' E 135°07'0 0.0
2017-Dec-03 15:28N 34°14' E 135°07'0 0.0
2017-Dec-03 14:58N 34°14' E 135°07'0 0.0
2017-Dec-03 14:28N 34°14' E 135°07'0 0.0
2017-Dec-03 13:58N 34°14' E 135°07'0 0.0
2017-Dec-03 13:25N 34°14' E 135°07'0 0.0
2017-Dec-03 12:58N 34°14' E 135°07'0 0.0
2017-Dec-03 12:28N 34°14' E 135°07'0 0.0
2017-Dec-03 11:58N 34°14' E 135°07'0 0.0
2017-Dec-03 11:28N 34°14' E 135°07'0 0.0
2017-Dec-03 10:58N 34°14' E 135°07'0 0.0
2017-Dec-03 10:28N 34°14' E 135°07'0 0.0
2017-Dec-03 09:58N 34°14' E 135°07'0 0.0
2017-Dec-03 09:28N 34°14' E 135°07'0 0.0
2017-Dec-03 08:58N 34°14' E 135°07'0 0.0
2017-Dec-03 08:28N 34°14' E 135°07'0 0.0
2017-Dec-03 07:58N 34°14' E 135°07'0 0.0
2017-Dec-03 07:28N 34°14' E 135°07'0 0.0
2017-Dec-03 06:58N 34°14' E 135°07'0 0.0
2017-Dec-03 06:28N 34°14' E 135°07'0 0.0
2017-Dec-03 05:58N 34°14' E 135°07'0 0.0
2017-Dec-03 05:28N 34°14' E 135°07'0 0.0
2017-Dec-03 04:58N 34°14' E 135°07'0 0.0
2017-Dec-03 04:28N 34°14' E 135°07'0 0.0
2017-Dec-03 03:58N 34°14' E 135°07'0 0.0
2017-Dec-03 03:28N 34°14' E 135°07'0 0.0
2017-Dec-03 02:58N 34°14' E 135°07'0 0.0
2017-Dec-03 02:28N 34°14' E 135°07'0 0.0
2017-Dec-03 01:58N 34°14' E 135°07'0 0.0
2017-Dec-03 01:28N 34°14' E 135°07'0 0.0
2017-Dec-03 00:58N 34°14' E 135°07'0 0.0
2017-Dec-03 00:28N 34°14' E 135°07'0 0.0
2017-Dec-02 23:58N 34°14' E 135°07'0 0.0
2017-Dec-02 23:28N 34°14' E 135°07'0 0.0
2017-Dec-02 22:58N 34°14' E 135°07'0 0.0
2017-Dec-02 22:28N 34°14' E 135°07'0 0.0
2017-Dec-02 21:58N 34°14' E 135°07'0 0.0
2017-Dec-02 21:28N 34°14' E 135°07'0 0.0
2017-Dec-02 20:58N 34°14' E 135°07'0 0.0
2017-Dec-02 20:28N 34°14' E 135°07'0 0.0
2017-Dec-02 19:58N 34°14' E 135°07'0 0.0
2017-Dec-02 19:28N 34°14' E 135°07'0 0.0
2017-Dec-02 18:58N 34°14' E 135°07'0 0.0
2017-Dec-02 18:28N 34°14' E 135°07'0 0.0
2017-Dec-02 17:58N 34°14' E 135°07'0 0.0
2017-Dec-02 17:28N 34°14' E 135°07'0 0.0
2017-Dec-02 16:58N 34°14' E 135°07'0 0.0
2017-Dec-02 16:28N 34°14' E 135°07'0 0.0
2017-Dec-02 15:58N 34°14' E 135°07'0 0.0
2017-Dec-02 15:28N 34°14' E 135°07'0 0.0
2017-Dec-02 14:58N 34°14' E 135°07'0 0.0
2017-Dec-02 14:28N 34°14' E 135°07'0 0.0
2017-Dec-02 13:58N 34°14' E 135°07'0 0.0
2017-Dec-02 13:28N 34°14' E 135°07'0 0.0
2017-Dec-02 12:58N 34°14' E 135°07'0 0.0
2017-Dec-02 12:28N 34°14' E 135°07'0 0.0
2017-Dec-02 11:58N 34°14' E 135°07'0 0.0
2017-Dec-02 11:28N 34°14' E 135°07'0 0.0
2017-Dec-02 10:58N 34°14' E 135°07'0 0.0
2017-Dec-02 10:28N 34°14' E 135°07'0 0.0
2017-Dec-02 09:58N 34°14' E 135°07'0 0.0
2017-Dec-02 09:28N 34°14' E 135°07'0 0.0
2017-Dec-02 08:58N 34°14' E 135°07'0 0.0
2017-Dec-02 08:28N 34°14' E 135°07'0 0.0
2017-Dec-02 07:58N 34°14' E 135°07'0 0.0
2017-Dec-02 07:28N 34°14' E 135°07'0 0.0
2017-Dec-02 06:58N 34°14' E 135°07'0 0.0
2017-Dec-02 06:28N 34°14' E 135°07'0 0.0
2017-Dec-02 05:58N 34°14' E 135°07'0 0.0
2017-Dec-02 05:28N 34°14' E 135°07'0 0.0
2017-Dec-02 04:58N 34°14' E 135°07'0 0.0
2017-Dec-02 04:28N 34°14' E 135°07'0 0.0
2017-Dec-02 03:58N 34°14' E 135°07'0 0.0
2017-Dec-02 03:28N 34°14' E 135°07'0 0.0
2017-Dec-02 02:58N 34°14' E 135°07'0 0.0
2017-Dec-02 02:28N 34°14' E 135°07'0 0.0
2017-Dec-02 01:55N 34°14' E 135°07'0 0.0
2017-Dec-02 01:28N 34°14' E 135°07'0 0.0
2017-Dec-02 00:58N 34°14' E 135°07'0 0.0
2017-Dec-02 00:28N 34°14' E 135°07'0 0.0
2017-Dec-01 23:58N 34°14' E 135°07'0 0.0
2017-Dec-01 23:28N 34°14' E 135°07'0 0.0
2017-Dec-01 22:58N 34°14' E 135°07'0 0.0
2017-Dec-01 22:28N 34°14' E 135°07'0 0.0
2017-Dec-01 21:58N 34°14' E 135°07'0 0.0
2017-Dec-01 21:28N 34°14' E 135°07'0 0.0
2017-Dec-01 20:58N 34°14' E 135°07'0 0.0
2017-Dec-01 20:28N 34°14' E 135°07'0 0.0
2017-Dec-01 19:58N 34°14' E 135°07'0 0.0
2017-Dec-01 19:28N 34°14' E 135°07'0 0.0
2017-Dec-01 18:58N 34°14' E 135°07'0 0.0
2017-Dec-01 18:28N 34°14' E 135°07'0 0.0
2017-Dec-01 17:58N 34°14' E 135°07'0 0.0
2017-Dec-01 17:28N 34°14' E 135°07'0 0.0
2017-Dec-01 16:58N 34°14' E 135°07'0 0.0
2017-Dec-01 16:28N 34°14' E 135°07'0 0.0
2017-Dec-01 15:58N 34°14' E 135°07'0 0.0
2017-Dec-01 15:28N 34°14' E 135°07'0 0.0
2017-Dec-01 14:58N 34°14' E 135°07'0 0.0
2017-Dec-01 14:28N 34°14' E 135°07'0 0.0
2017-Dec-01 13:58N 34°14' E 135°07'0 0.0
2017-Dec-01 13:28N 34°14' E 135°07'0 0.0
2017-Dec-01 12:58N 34°14' E 135°07'0 0.0
2017-Dec-01 12:28N 34°14' E 135°07'0 0.0
2017-Dec-01 11:58N 34°14' E 135°07'0 0.0
2017-Dec-01 11:28N 34°14' E 135°07'0 0.0
2017-Dec-01 10:58N 34°14' E 135°07'0 0.0
2017-Dec-01 10:28N 34°14' E 135°07'0 0.0
2017-Dec-01 09:58N 34°14' E 135°07'0 0.0
2017-Dec-01 09:28N 34°14' E 135°07'0 0.0
2017-Dec-01 08:58N 34°14' E 135°07'0 0.0
2017-Dec-01 08:28N 34°14' E 135°07'0 0.0
2017-Dec-01 07:58N 34°14' E 135°07'0 0.0
2017-Dec-01 07:28N 34°14' E 135°07'0 0.0
2017-Dec-01 06:58N 34°14' E 135°07'0 0.0
2017-Dec-01 06:28N 34°14' E 135°07'0 0.0
2017-Dec-01 05:58N 34°14' E 135°07'0 0.0
2017-Dec-01 05:28N 34°14' E 135°07'0 0.0
2017-Dec-01 04:58N 34°14' E 135°07'0 0.0
2017-Dec-01 04:28N 34°14' E 135°07'0 0.0
2017-Dec-01 03:58N 34°14' E 135°07'0 0.0
2017-Dec-01 03:28N 34°14' E 135°07'0 0.0
2017-Dec-01 02:58N 34°14' E 135°07'0 0.0
2017-Dec-01 02:28N 34°14' E 135°07'0 0.0
2017-Dec-01 01:58N 34°14' E 135°07'0 0.0
2017-Dec-01 01:28N 34°14' E 135°07'0 0.0
2017-Dec-01 00:58N 34°14' E 135°07'0 0.0
2017-Dec-01 00:28N 34°14' E 135°07'0 0.0
2017-Nov-30 23:58N 34°14' E 135°07'0 0.0
2017-Nov-30 23:28N 34°14' E 135°07'0 0.0
2017-Nov-30 22:58N 34°14' E 135°07'0 0.0
2017-Nov-30 22:28N 34°14' E 135°07'0 0.0
2017-Nov-30 21:58N 34°14' E 135°07'0 0.0
2017-Nov-30 21:28N 34°14' E 135°07'0 0.0
2017-Nov-30 20:58N 34°14' E 135°07'0 0.0
2017-Nov-30 20:28N 34°14' E 135°07'0 0.0
2017-Nov-30 19:58N 34°14' E 135°07'0 0.0
2017-Nov-30 19:28N 34°14' E 135°07'0 0.0
2017-Nov-30 18:58N 34°14' E 135°07'0 0.0
2017-Nov-30 18:28N 34°14' E 135°07'0 0.0
2017-Nov-30 17:58N 34°14' E 135°07'0 0.0
2017-Nov-30 17:28N 34°14' E 135°07'0 0.0
2017-Nov-30 16:58N 34°14' E 135°07'0 0.0
2017-Nov-30 16:28N 34°14' E 135°07'0 0.0
2017-Nov-30 15:58N 34°14' E 135°07'0 0.0
2017-Nov-30 15:28N 34°14' E 135°07'0 0.0
2017-Nov-30 14:58N 34°14' E 135°07'0 0.0
2017-Nov-30 14:28N 34°14' E 135°07'0 0.0
2017-Nov-30 13:58N 34°14' E 135°07'0 0.0
2017-Nov-30 13:28N 34°14' E 135°07'0 0.0
2017-Nov-30 12:58N 34°14' E 135°07'0 0.0
2017-Nov-30 12:28N 34°14' E 135°07'0 0.0
2017-Nov-30 11:58N 34°14' E 135°07'0 0.0
2017-Nov-30 11:28N 34°14' E 135°07'0 0.0
2017-Nov-30 10:58N 34°14' E 135°07'0 0.0
2017-Nov-30 10:28N 34°14' E 135°07'0 0.0
2017-Nov-30 09:58N 34°14' E 135°07'0 0.0
2017-Nov-30 09:28N 34°14' E 135°07'0 0.0
2017-Nov-30 08:58N 34°14' E 135°07'0 0.0
2017-Nov-30 08:28N 34°14' E 135°07'0 0.0
2017-Nov-30 07:58N 34°14' E 135°07'0 0.0
2017-Nov-30 07:28N 34°14' E 135°07'0 0.0
2017-Nov-30 06:58N 34°14' E 135°07'0 0.0
2017-Nov-30 06:28N 34°14' E 135°07'0 0.0
2017-Nov-30 05:58N 34°14' E 135°07'0 0.0
2017-Nov-30 05:28N 34°14' E 135°07'0 0.0
2017-Nov-30 04:58N 34°14' E 135°07'0 0.0
2017-Nov-30 04:28N 34°14' E 135°07'0 0.0
2017-Nov-30 03:58N 34°14' E 135°07'0 0.0
2017-Nov-30 03:28N 34°14' E 135°07'0 0.0
2017-Nov-30 02:58N 34°14' E 135°07'0 0.0
2017-Nov-30 02:28N 34°14' E 135°07'0 0.0
2017-Nov-30 01:58N 34°14' E 135°07'0 0.0
2017-Nov-30 01:28N 34°14' E 135°07'0 0.0
2017-Nov-30 00:58N 34°14' E 135°07'0 0.0
2017-Nov-30 00:28N 34°14' E 135°07'0 0.6
2017-Nov-30 00:00N 34°14' E 135°07'2 3.6
2017-Nov-29 23:30N 34°14' E 135°05'0 0.0
2017-Nov-29 22:59N 34°14' E 135°05'0 0.0
2017-Nov-29 22:29N 34°14' E 135°05'0 0.2
2017-Nov-29 21:59N 34°14' E 135°05'0 0.3
2017-Nov-29 21:29N 34°14' E 135°05'0 0.1
2017-Nov-29 20:59N 34°14' E 135°05'0 0.1
2017-Nov-29 20:29N 34°14' E 135°05'0 0.0
2017-Nov-29 19:59N 34°14' E 135°05'0 0.1
2017-Nov-29 19:29N 34°14' E 135°05'0 0.1
2017-Nov-29 18:59N 34°14' E 135°05'0 0.1
2017-Nov-29 18:26N 34°14' E 135°05'0 0.2
2017-Nov-29 17:59N 34°14' E 135°05'0 0.0
2017-Nov-29 17:29N 34°14' E 135°05'0 0.0
2017-Nov-29 16:59N 34°14' E 135°05'0 0.1
2017-Nov-29 16:29N 34°14' E 135°05'0 0.1
2017-Nov-29 15:59N 34°14' E 135°05'0 0.0
2017-Nov-29 15:29N 34°14' E 135°05'0 0.0
2017-Nov-29 14:59N 34°14' E 135°05'0 0.1
2017-Nov-29 14:29N 34°14' E 135°05'0 0.0
2017-Nov-29 13:59N 34°14' E 135°05'0 0.0
2017-Nov-29 13:29N 34°14' E 135°05'0 0.1
2017-Nov-29 12:59N 34°14' E 135°05'0 0.1
2017-Nov-29 12:29N 34°14' E 135°05'0 0.0
2017-Nov-29 11:59N 34°14' E 135°05'0 0.0
2017-Nov-29 11:29N 34°14' E 135°05'0 0.0
2017-Nov-29 10:59N 34°14' E 135°05'0 0.0
2017-Nov-29 10:29N 34°14' E 135°05'0 0.0
2017-Nov-29 09:59N 34°14' E 135°05'0 0.0
2017-Nov-29 09:29N 34°14' E 135°05'  

Dump ship's entire track history